Time;durP1;ratioP1;P1;durP2;ratioP2;P2;SDS_P1;SDS_P2;PMS_P1;PMS_P2;Temp;Humidity;BMP_temperature;BMP_pressure;BME280_temperature;BME280_humidity;BME280_pressure;Samples;Min_cycle;Max_cycle;Signal;HPM_P1;HPM_P2
2023/04/28 00:00:49;;;;;;;6.72;4.30;;;;;;;;;;5071798;28;20470;-68
2023/04/28 00:03:16;;;;;;;8.48;4.55;;;;;;;;;;5053571;28;20414;-66
2023/04/28 00:05:43;;;;;;;5.78;4.13;;;;;;;;;;5051621;28;20084;-67
2023/04/28 00:08:10;;;;;;;6.25;4.03;;;;;;;;;;5051605;28;20044;-67
2023/04/28 00:10:38;;;;;;;6.82;3.90;;;;;;;;;;5051576;28;20049;-67
2023/04/28 00:13:05;;;;;;;5.88;3.22;;;;;;;;;;5051593;28;20048;-67
2023/04/28 00:15:32;;;;;;;5.75;3.70;;;;;;;;;;5051128;28;20052;-67
2023/04/28 00:17:59;;;;;;;8.40;3.83;;;;;;;;;;5051350;28;20045;-67
2023/04/28 00:20:26;;;;;;;6.45;3.40;;;;;;;;;;5051578;28;20084;-67
2023/04/28 00:22:53;;;;;;;6.82;3.25;;;;;;;;;;5051282;28;20056;-67
2023/04/28 00:25:20;;;;;;;5.78;3.60;;;;;;;;;;5051456;28;20069;-67
2023/04/28 00:27:49;;;;;;;6.90;3.30;;;;;;;;;;5051091;28;20053;-67
2023/04/28 00:30:16;;;;;;;5.05;3.20;;;;;;;;;;5051644;28;20099;-67
2023/04/28 00:32:44;;;;;;;5.35;3.10;;;;;;;;;;5051249;28;20084;-67
2023/04/28 00:35:11;;;;;;;4.90;3.35;;;;;;;;;;5051527;28;20093;-67
2023/04/28 00:37:38;;;;;;;6.45;3.70;;;;;;;;;;5050960;28;20072;-66
2023/04/28 00:40:06;;;;;;;6.82;4.07;;;;;;;;;;5051113;28;20049;-66
2023/04/28 00:42:33;;;;;;;5.63;3.38;;;;;;;;;;5051271;28;20090;-67
2023/04/28 00:45:04;;;;;;;4.82;2.80;;;;;;;;;;5051373;28;20041;-67
2023/04/28 00:47:31;;;;;;;5.28;3.00;;;;;;;;;;5051592;28;20460;-67
2023/04/28 00:49:58;;;;;;;5.18;3.10;;;;;;;;;;5051204;28;20053;-67
2023/04/28 00:52:25;;;;;;;5.32;3.00;;;;;;;;;;5051266;28;20049;-68
2023/04/28 00:54:52;;;;;;;6.57;2.80;;;;;;;;;;5051009;28;20099;-67
2023/04/28 00:57:19;;;;;;;5.32;2.90;;;;;;;;;;5050892;28;20053;-66
2023/04/28 00:59:46;;;;;;;5.72;3.50;;;;;;;;;;5050966;28;20053;-65
2023/04/28 01:02:16;;;;;;;7.95;4.22;;;;;;;;;;5060790;28;20078;-67
2023/04/28 01:04:44;;;;;;;6.30;3.28;;;;;;;;;;5071441;28;20135;-67
2023/04/28 01:07:11;;;;;;;5.28;2.92;;;;;;;;;;5069297;28;20102;-67
2023/04/28 01:09:38;;;;;;;4.75;2.80;;;;;;;;;;5070565;28;20113;-67
2023/04/28 01:12:05;;;;;;;5.95;3.17;;;;;;;;;;5071051;28;20485;-67
2023/04/28 01:14:33;;;;;;;5.68;2.83;;;;;;;;;;5070989;28;20420;-66
2023/04/28 01:17:00;;;;;;;4.68;3.15;;;;;;;;;;5070817;28;20125;-66
2023/04/28 01:19:29;;;;;;;5.70;3.08;;;;;;;;;;5070776;28;20122;-67
2023/04/28 01:21:55;;;;;;;6.43;3.38;;;;;;;;;;5070842;28;20463;-66
2023/04/28 01:24:24;;;;;;;6.30;3.22;;;;;;;;;;5070775;28;20049;-66
2023/04/28 01:26:51;;;;;;;6.82;3.88;;;;;;;;;;5070776;28;20052;-66
2023/04/28 01:29:17;;;;;;;6.10;3.30;;;;;;;;;;5073925;28;20052;-66
2023/04/28 01:31:44;;;;;;;5.43;2.97;;;;;;;;;;5074479;28;20056;-66
2023/04/28 01:34:11;;;;;;;4.82;2.85;;;;;;;;;;5074258;28;20097;-66
2023/04/28 01:36:38;;;;;;;5.13;3.00;;;;;;;;;;5074156;28;20051;-66
2023/04/28 01:39:05;;;;;;;6.38;3.30;;;;;;;;;;5074428;28;20444;-66
2023/04/28 01:41:34;;;;;;;6.25;2.75;;;;;;;;;;5074423;28;20095;-66
2023/04/28 01:44:01;;;;;;;5.00;2.75;;;;;;;;;;5074175;28;20084;-66
2023/04/28 01:46:27;;;;;;;4.85;2.67;;;;;;;;;;5073852;28;20102;-66
2023/04/28 01:48:54;;;;;;;5.35;2.70;;;;;;;;;;5073850;28;20098;-67
2023/04/28 01:51:21;;;;;;;5.50;2.90;;;;;;;;;;5074099;28;20456;-66
2023/04/28 01:53:48;;;;;;;6.97;2.80;;;;;;;;;;5073911;28;20102;-66
2023/04/28 01:56:15;;;;;;;7.25;3.10;;;;;;;;;;5073628;28;20044;-67
2023/04/28 01:58:43;;;;;;;4.55;2.63;;;;;;;;;;5073702;28;20139;-66
2023/04/28 02:01:10;;;;;;;4.93;2.72;;;;;;;;;;5073540;28;20474;-66
2023/04/28 02:03:37;;;;;;;5.45;2.60;;;;;;;;;;5073957;28;20464;-66
2023/04/28 02:06:04;;;;;;;4.70;2.53;;;;;;;;;;5073773;28;20125;-66
2023/04/28 02:08:31;;;;;;;5.22;2.92;;;;;;;;;;5073710;28;20131;-66
2023/04/28 02:11:00;;;;;;;5.13;2.83;;;;;;;;;;5073685;28;20135;-66
2023/04/28 02:13:27;;;;;;;6.93;2.40;;;;;;;;;;5073949;28;20066;-66
2023/04/28 02:15:55;;;;;;;5.82;2.60;;;;;;;;;;5073289;28;20048;-67
2023/04/28 02:18:22;;;;;;;4.38;2.47;;;;;;;;;;5073504;28;20553;-67
2023/04/28 02:20:49;;;;;;;4.65;2.47;;;;;;;;;;5073628;28;20452;-67
2023/04/28 02:23:15;;;;;;;4.50;2.80;;;;;;;;;;5073515;28;20053;-67
2023/04/28 02:25:42;;;;;;;4.22;2.67;;;;;;;;;;5073408;28;20052;-66
2023/04/28 02:28:09;;;;;;;4.15;2.47;;;;;;;;;;5073010;28;20049;-65
2023/04/28 02:30:36;;;;;;;4.55;2.50;;;;;;;;;;5073482;28;20110;-67
2023/04/28 02:33:04;;;;;;;5.25;3.00;;;;;;;;;;5073259;28;20118;-66
2023/04/28 02:35:31;;;;;;;4.32;2.30;;;;;;;;;;5072970;28;20049;-67
2023/04/28 02:37:58;;;;;;;4.97;2.75;;;;;;;;;;5072891;28;20455;-66
2023/04/28 02:40:24;;;;;;;5.68;2.92;;;;;;;;;;5072859;28;20056;-66
2023/04/28 02:42:51;;;;;;;5.40;2.90;;;;;;;;;;5073176;28;20555;-66
2023/04/28 02:45:18;;;;;;;5.20;2.72;;;;;;;;;;5073267;28;20439;-67
2023/04/28 02:47:45;;;;;;;5.03;2.70;;;;;;;;;;5072982;28;20106;-67
2023/04/28 02:50:13;;;;;;;4.55;2.80;;;;;;;;;;5072809;28;20420;-66
2023/04/28 02:52:40;;;;;;;5.20;2.83;;;;;;;;;;5073029;28;20073;-67
2023/04/28 02:55:07;;;;;;;5.25;3.15;;;;;;;;;;5072808;28;20049;-67
2023/04/28 02:57:34;;;;;;;4.55;2.47;;;;;;;;;;5072383;28;20052;-66
2023/04/28 03:00:01;;;;;;;5.35;3.00;;;;;;;;;;5072689;28;20421;-67
2023/04/28 03:02:28;;;;;;;4.18;2.65;;;;;;;;;;5061589;28;20498;-67
2023/04/28 03:04:55;;;;;;;4.32;2.42;;;;;;;;;;5052769;28;20443;-67
2023/04/28 03:07:23;;;;;;;5.60;2.72;;;;;;;;;;5052653;28;20501;-67
2023/04/28 03:09:50;;;;;;;5.38;2.78;;;;;;;;;;5052635;28;20053;-67
2023/04/28 03:12:16;;;;;;;5.32;2.72;;;;;;;;;;5052817;28;20112;-67
2023/04/28 03:14:43;;;;;;;4.70;2.55;;;;;;;;;;5052380;28;20099;-66
2023/04/28 03:17:13;;;;;;;5.28;2.45;;;;;;;;;;5052636;28;20095;-67
2023/04/28 03:19:39;;;;;;;3.75;2.22;;;;;;;;;;5052574;28;20095;-67
2023/04/28 03:22:10;;;;;;;6.22;2.50;;;;;;;;;;5052490;28;20049;-67
2023/04/28 03:24:38;;;;;;;5.15;2.78;;;;;;;;;;5052385;28;20413;-67
2023/04/28 03:27:05;;;;;;;3.72;2.20;;;;;;;;;;5052363;28;20053;-67
2023/04/28 03:29:32;;;;;;;3.60;2.40;;;;;;;;;;5052289;28;20057;-67
2023/04/28 03:31:59;;;;;;;4.80;2.60;;;;;;;;;;5052506;28;20057;-67
2023/04/28 03:34:26;;;;;;;4.78;2.42;;;;;;;;;;5051951;28;20053;-67
2023/04/28 03:36:52;;;;;;;5.32;2.67;;;;;;;;;;5051865;28;20482;-67
2023/04/28 03:39:19;;;;;;;4.55;2.65;;;;;;;;;;5051959;28;20075;-67
2023/04/28 03:41:47;;;;;;;6.45;2.65;;;;;;;;;;5051816;28;20049;-67
2023/04/28 03:44:14;;;;;;;5.38;2.85;;;;;;;;;;5051921;28;20045;-67
2023/04/28 03:46:41;;;;;;;4.47;2.60;;;;;;;;;;5051971;28;20052;-67
2023/04/28 03:49:08;;;;;;;5.00;2.60;;;;;;;;;;5051983;28;20493;-67
2023/04/28 03:51:34;;;;;;;4.50;2.67;;;;;;;;;;5050985;28;20516;-68
2023/04/28 03:54:01;;;;;;;4.97;2.75;;;;;;;;;;5051791;28;20110;-66
2023/04/28 03:56:28;;;;;;;5.05;2.72;;;;;;;;;;5051309;28;20049;-66
2023/04/28 03:58:56;;;;;;;4.63;2.55;;;;;;;;;;5051613;28;20057;-66
2023/04/28 04:01:23;;;;;;;4.15;2.30;;;;;;;;;;5053706;28;20049;-65
2023/04/28 04:03:50;;;;;;;5.05;2.45;;;;;;;;;;5071661;28;20459;-67
2023/04/28 04:06:17;;;;;;;4.25;2.90;;;;;;;;;;5071344;28;20052;-67
2023/04/28 04:08:44;;;;;;;4.95;2.47;;;;;;;;;;5071610;28;20531;-67
2023/04/28 04:11:11;;;;;;;4.95;2.90;;;;;;;;;;5071389;28;20044;-67
2023/04/28 04:13:38;;;;;;;4.57;2.53;;;;;;;;;;5071550;28;20044;-66
2023/04/28 04:16:07;;;;;;;6.22;2.97;;;;;;;;;;5071190;28;20124;-67
2023/04/28 04:18:34;;;;;;;4.72;2.42;;;;;;;;;;5071301;28;20098;-67
2023/04/28 04:21:01;;;;;;;6.30;2.92;;;;;;;;;;5071131;28;20083;-67
2023/04/28 04:23:28;;;;;;;5.40;2.70;;;;;;;;;;5071266;28;20057;-67
2023/04/28 04:25:55;;;;;;;5.18;2.92;;;;;;;;;;5071560;28;20405;-67
2023/04/28 04:28:22;;;;;;;5.68;3.38;;;;;;;;;;5071082;28;20049;-66
2023/04/28 04:30:49;;;;;;;6.78;3.10;;;;;;;;;;5071203;28;20460;-67
2023/04/28 04:33:17;;;;;;;6.57;3.58;;;;;;;;;;5071252;28;20056;-67
2023/04/28 04:35:44;;;;;;;5.40;3.25;;;;;;;;;;5071326;28;20049;-66
2023/04/28 04:38:11;;;;;;;6.20;3.25;;;;;;;;;;5071106;28;20052;-67
2023/04/28 04:40:38;;;;;;;5.63;3.35;;;;;;;;;;5071036;28;20053;-66
2023/04/28 04:43:05;;;;;;;5.15;3.20;;;;;;;;;;5071283;28;20052;-67
2023/04/28 04:45:32;;;;;;;6.28;3.53;;;;;;;;;;5071214;28;20049;-67
2023/04/28 04:47:59;;;;;;;6.22;4.10;;;;;;;;;;5071251;28;20105;-65
2023/04/28 04:50:27;;;;;;;8.90;4.18;;;;;;;;;;5071616;28;20052;-66
2023/04/28 04:52:56;;;;;;;5.57;3.28;;;;;;;;;;5071548;28;20102;-66
2023/04/28 04:55:23;;;;;;;5.00;3.03;;;;;;;;;;5070941;28;20098;-66
2023/04/28 04:57:49;;;;;;;5.95;3.97;;;;;;;;;;5070151;22;20046;-69
2023/04/28 05:00:17;;;;;;;5.85;3.42;;;;;;;;;;5030324;28;20054;-69
2023/04/28 05:02:44;;;;;;;6.57;3.67;;;;;;;;;;5033336;28;20524;-69
2023/04/28 05:05:11;;;;;;;6.57;3.47;;;;;;;;;;5034519;28;20053;-69
2023/04/28 05:07:39;;;;;;;5.97;3.45;;;;;;;;;;5035219;28;20049;-69
2023/04/28 05:10:07;;;;;;;10.43;3.78;;;;;;;;;;5035263;28;20057;-69
2023/04/28 05:12:34;;;;;;;6.63;3.80;;;;;;;;;;5035311;28;20493;-69
2023/04/28 05:15:01;;;;;;;6.15;3.40;;;;;;;;;;5035278;28;20049;-69
2023/04/28 05:17:28;;;;;;;7.57;3.67;;;;;;;;;;5035020;28;20085;-68
2023/04/28 05:19:54;;;;;;;7.25;3.40;;;;;;;;;;5035107;28;20042;-69
2023/04/28 05:22:21;;;;;;;8.10;4.32;;;;;;;;;;5034981;28;20046;-69
2023/04/28 05:24:49;;;;;;;5.07;3.00;;;;;;;;;;5034992;28;20056;-68
2023/04/28 05:27:16;;;;;;;6.38;3.03;;;;;;;;;;5035221;28;20049;-69
2023/04/28 05:29:43;;;;;;;5.70;3.50;;;;;;;;;;5034725;28;20046;-69
2023/04/28 05:32:10;;;;;;;5.20;3.45;;;;;;;;;;5034883;28;20049;-68
2023/04/28 05:34:36;;;;;;;5.53;2.90;;;;;;;;;;5034813;28;20100;-69
2023/04/28 05:37:03;;;;;;;4.80;3.20;;;;;;;;;;5034487;28;20103;-69
2023/04/28 05:39:30;;;;;;;6.57;3.50;;;;;;;;;;5034567;28;20053;-68
2023/04/28 05:41:58;;;;;;;6.55;3.20;;;;;;;;;;5034780;28;20049;-68
2023/04/28 05:44:25;;;;;;;6.38;3.47;;;;;;;;;;5034646;28;20128;-67
2023/04/28 05:46:52;;;;;;;6.43;3.50;;;;;;;;;;5034363;28;20053;-68
2023/04/28 05:49:19;;;;;;;6.03;3.25;;;;;;;;;;5034335;28;20045;-67
2023/04/28 05:51:46;;;;;;;5.18;3.53;;;;;;;;;;5034398;28;20049;-68
2023/04/28 05:54:12;;;;;;;4.75;3.03;;;;;;;;;;5034328;28;20472;-68
2023/04/28 05:56:39;;;;;;;6.38;3.70;;;;;;;;;;5033955;28;20095;-68
2023/04/28 05:59:08;;;;;;;4.82;3.22;;;;;;;;;;5034052;28;20494;-69
2023/04/28 06:01:37;;;;;;;6.43;3.75;;;;;;;;;;5030191;28;20085;-69
2023/04/28 06:04:04;;;;;;;6.68;3.47;;;;;;;;;;5014441;28;20046;-69
2023/04/28 06:06:32;;;;;;;4.80;3.00;;;;;;;;;;5014246;28;20502;-70
2023/04/28 06:08:59;;;;;;;5.57;3.60;;;;;;;;;;5014593;28;20077;-68
2023/04/28 06:11:26;;;;;;;8.15;3.90;;;;;;;;;;5014591;28;20403;-69
2023/04/28 06:13:53;;;;;;;5.95;3.30;;;;;;;;;;5013531;28;20050;-68
2023/04/28 06:16:22;;;;;;;7.30;3.75;;;;;;;;;;5013929;28;20137;-69
2023/04/28 06:18:49;;;;;;;7.10;3.72;;;;;;;;;;5014075;28;20046;-70
2023/04/28 06:21:16;;;;;;;8.27;3.78;;;;;;;;;;5014125;28;20064;-68
2023/04/28 06:23:43;;;;;;;6.07;3.97;;;;;;;;;;5014196;28;20054;-69
2023/04/28 06:26:10;;;;;;;7.32;3.22;;;;;;;;;;5014236;28;20050;-69
2023/04/28 06:28:36;;;;;;;6.45;3.20;;;;;;;;;;5014033;28;20104;-69
2023/04/28 06:31:03;;;;;;;6.03;3.00;;;;;;;;;;5013961;28;20123;-69
2023/04/28 06:33:31;;;;;;;5.30;2.63;;;;;;;;;;5014166;28;20050;-69
2023/04/28 06:35:58;;;;;;;5.07;2.88;;;;;;;;;;5014151;28;20045;-69
2023/04/28 06:38:25;;;;;;;6.95;3.28;;;;;;;;;;5013748;28;20041;-69
2023/04/28 06:40:52;;;;;;;5.18;2.63;;;;;;;;;;5013675;28;20096;-69
2023/04/28 06:43:19;;;;;;;5.13;3.47;;;;;;;;;;5013823;28;20509;-69
2023/04/28 06:45:47;;;;;;;5.72;3.35;;;;;;;;;;5013929;28;20042;-68
2023/04/28 06:48:14;;;;;;;6.05;3.58;;;;;;;;;;5013810;28;20160;-69
2023/04/28 06:50:42;;;;;;;6.68;3.08;;;;;;;;;;5013423;28;20208;-69
2023/04/28 06:53:09;;;;;;;7.75;3.60;;;;;;;;;;5013496;28;20057;-69
2023/04/28 06:55:35;;;;;;;6.82;3.88;;;;;;;;;;5013788;28;20494;-69
2023/04/28 06:58:02;;;;;;;6.85;4.00;;;;;;;;;;5013137;28;20046;-70
2023/04/28 07:00:29;;;;;;;7.63;3.58;;;;;;;;;;5013669;28;20053;-71
2023/04/28 07:02:56;;;;;;;6.18;3.30;;;;;;;;;;5028350;28;20049;-69
2023/04/28 07:05:23;;;;;;;5.60;3.40;;;;;;;;;;5033364;28;20560;-68
2023/04/28 07:07:54;;;;;;;5.78;2.60;;;;;;;;;;5033355;28;20486;-69
2023/04/28 07:10:21;;;;;;;4.13;2.45;;;;;;;;;;5033064;28;20059;-68
2023/04/28 07:12:49;;;;;;;5.55;2.85;;;;;;;;;;5033104;28;20083;-68
2023/04/28 07:15:16;;;;;;;5.85;2.80;;;;;;;;;;5032906;28;20060;-69
2023/04/28 07:17:43;;;;;;;5.65;2.70;;;;;;;;;;5032665;28;20053;-69
2023/04/28 07:20:10;;;;;;;6.00;3.53;;;;;;;;;;5032714;28;20103;-68
2023/04/28 07:22:38;;;;;;;4.18;2.00;;;;;;;;;;5032746;28;20053;-70
2023/04/28 07:25:06;;;;;;;7.30;2.63;;;;;;;;;;5032304;28;20472;-69
2023/04/28 07:27:33;;;;;;;5.05;2.30;;;;;;;;;;5032520;28;20464;-70
2023/04/28 07:30:00;;;;;;;4.32;2.10;;;;;;;;;;5032408;28;20061;-70
2023/04/28 07:32:27;;;;;;;4.88;1.80;;;;;;;;;;5032278;28;20140;-69
2023/04/28 07:34:53;;;;;;;6.45;2.00;;;;;;;;;;5032340;28;20053;-70
2023/04/28 07:37:20;;;;;;;4.32;2.10;;;;;;;;;;5031925;28;20048;-69
2023/04/28 07:39:47;;;;;;;4.78;1.90;;;;;;;;;;5032438;28;20118;-70
2023/04/28 07:42:16;;;;;;;4.18;2.00;;;;;;;;;;5032293;28;20046;-69
2023/04/28 07:44:43;;;;;;;4.65;2.13;;;;;;;;;;5031948;28;20089;-70
2023/04/28 07:47:09;;;;;;;4.25;2.10;;;;;;;;;;5032079;28;20049;-69
2023/04/28 07:49:36;;;;;;;5.07;2.25;;;;;;;;;;5031996;28;20567;-69
2023/04/28 07:52:03;;;;;;;5.10;2.35;;;;;;;;;;5032051;28;20049;-69
2023/04/28 07:54:30;;;;;;;5.40;2.47;;;;;;;;;;5032075;28;20057;-69
2023/04/28 07:56:57;;;;;;;5.25;2.70;;;;;;;;;;5031741;28;20148;-69
2023/04/28 07:59:26;;;;;;;6.90;2.67;;;;;;;;;;5031855;28;20120;-70
2023/04/28 08:01:52;;;;;;;6.22;2.92;;;;;;;;;;5032068;28;20045;-67
2023/04/28 08:04:19;;;;;;;4.80;2.28;;;;;;;;;;5032264;28;20056;-68
2023/04/28 08:06:46;;;;;;;5.60;2.20;;;;;;;;;;5031639;28;20077;-66
2023/04/28 08:09:13;;;;;;;6.10;2.70;;;;;;;;;;5031666;28;20045;-67
2023/04/28 08:11:42;;;;;;;5.03;2.42;;;;;;;;;;5009000;28;20157;-66
2023/04/28 08:14:09;;;;;;;5.65;3.30;;;;;;;;;;5009614;28;20251;-68
2023/04/28 08:16:39;;;;;;;4.55;2.45;;;;;;;;;;5010065;28;20050;-69
2023/04/28 08:19:06;;;;;;;4.10;2.33;;;;;;;;;;5010238;28;20259;-68
2023/04/28 08:21:33;;;;;;;5.20;2.40;;;;;;;;;;5010435;28;20057;-68
2023/04/28 08:24:02;;;;;;;4.78;2.10;;;;;;;;;;5010344;28;20057;-68
2023/04/28 08:26:30;;;;;;;4.38;2.42;;;;;;;;;;5010247;28;20082;-68
2023/04/28 08:28:56;;;;;;;6.13;2.60;;;;;;;;;;5010265;28;20053;-67
2023/04/28 08:31:23;;;;;;;6.03;2.80;;;;;;;;;;5010020;28;20058;-67
2023/04/28 08:33:52;;;;;;;5.20;2.50;;;;;;;;;;5009917;28;20057;-65
2023/04/28 08:36:18;;;;;;;4.80;2.80;;;;;;;;;;5010242;28;20085;-66
2023/04/28 08:38:46;;;;;;;5.57;2.80;;;;;;;;;;5014215;28;20061;-67
2023/04/28 08:41:15;;;;;;;4.32;2.22;;;;;;;;;;5014431;28;20459;-67
2023/04/28 08:43:42;;;;;;;5.95;2.50;;;;;;;;;;5014370;28;20053;-68
2023/04/28 08:46:10;;;;;;;4.85;2.42;;;;;;;;;;5014184;28;20488;-68
2023/04/28 08:48:41;;;;;;;5.25;2.67;;;;;;;;;;5013895;28;20068;-68
2023/04/28 08:51:11;;;;;;;9.05;2.60;;;;;;;;;;5014334;28;20458;-68
2023/04/28 08:53:39;;;;;;;5.15;2.22;;;;;;;;;;5014041;28;20412;-69
2023/04/28 08:56:07;;;;;;;6.25;2.13;;;;;;;;;;5014133;28;20054;-68
2023/04/28 08:58:36;;;;;;;5.75;2.97;;;;;;;;;;5013506;28;20050;-68
2023/04/28 09:01:03;;;;;;;5.40;2.53;;;;;;;;;;5013888;28;20057;-68
2023/04/28 09:03:30;;;;;;;5.22;2.75;;;;;;;;;;5013410;28;20049;-68
2023/04/28 09:05:57;;;;;;;4.88;2.90;;;;;;;;;;5013458;28;20042;-69
2023/04/28 09:08:25;;;;;;;4.20;2.50;;;;;;;;;;5013572;28;20053;-69
2023/04/28 09:11:07;;;;;;;4.28;2.10;;;;;;;;;;5013704;28;20557;-68
2023/04/28 09:13:34;;;;;;;4.70;2.00;;;;;;;;;;5013777;28;20394;-68
2023/04/28 09:16:02;;;;;;;3.53;1.98;;;;;;;;;;5013638;28;20525;-68
2023/04/28 09:18:31;;;;;;;3.90;1.88;;;;;;;;;;5014028;28;20050;-69
2023/04/28 09:21:04;;;;;;;3.58;1.98;;;;;;;;;;5013523;28;20560;-68
2023/04/28 09:23:33;;;;;;;4.05;2.17;;;;;;;;;;5013351;28;20173;-69
2023/04/28 09:26:02;;;;;;;4.78;2.00;;;;;;;;;;5013767;28;20041;-68
2023/04/28 09:28:29;;;;;;;4.20;2.10;;;;;;;;;;5013460;28;20052;-67
2023/04/28 09:30:55;;;;;;;4.57;2.00;;;;;;;;;;5012929;28;20128;-69
2023/04/28 09:33:22;;;;;;;5.72;2.33;;;;;;;;;;5013095;28;20046;-69
2023/04/28 09:35:50;;;;;;;5.75;1.95;;;;;;;;;;5013339;28;20050;-69
2023/04/28 09:38:17;;;;;;;4.50;1.95;;;;;;;;;;5012907;28;20041;-68
2023/04/28 09:40:55;;;;;;;4.30;1.98;;;;;;;;;;5013309;28;20476;-69
2023/04/28 09:43:27;;;;;;;4.10;2.08;;;;;;;;;;5013302;28;20096;-69
2023/04/28 09:45:55;;;;;;;4.78;2.30;;;;;;;;;;5012923;28;20108;-69
2023/04/28 09:48:29;;;;;;;5.03;2.35;;;;;;;;;;5011984;28;20458;-68
2023/04/28 09:50:58;;;;;;;4.82;2.70;;;;;;;;;;5013029;28;20119;-68
2023/04/28 09:53:25;;;;;;;5.05;2.63;;;;;;;;;;5012599;28;20057;-68
2023/04/28 09:55:55;;;;;;;4.32;2.10;;;;;;;;;;5012758;28;20077;-68
2023/04/28 09:58:24;;;;;;;5.28;3.25;;;;;;;;;;5012735;28;20447;-69
2023/04/28 10:00:53;;;;;;;4.32;2.35;;;;;;;;;;5013028;28;20042;-68
2023/04/28 10:03:23;;;;;;;5.28;2.22;;;;;;;;;;5013714;28;20474;-68
2023/04/28 10:05:52;;;;;;;3.13;1.70;;;;;;;;;;5013140;28;20473;-68
2023/04/28 10:08:20;;;;;;;3.45;1.60;;;;;;;;;;5013246;28;20621;-69
2023/04/28 10:10:48;;;;;;;3.97;1.60;;;;;;;;;;5012472;28;20116;-68
2023/04/28 10:13:18;;;;;;;4.78;1.67;;;;;;;;;;5012561;28;20491;-68
2023/04/28 10:15:45;;;;;;;3.95;1.88;;;;;;;;;;5012844;28;20117;-68
2023/04/28 10:18:13;;;;;;;5.28;2.17;;;;;;;;;;5012660;28;20046;-68
2023/04/28 10:20:43;;;;;;;5.20;1.98;;;;;;;;;;5012594;28;20128;-68
2023/04/28 10:23:37;;;;;;;4.05;1.90;;;;;;;;;;5012358;28;20064;-68
2023/04/28 10:26:10;;;;;;;3.58;2.15;;;;;;;;;;5012756;28;20088;-68
2023/04/28 10:28:45;;;;;;;5.47;2.28;;;;;;;;;;5012691;28;20065;-67
2023/04/28 10:31:13;;;;;;;4.80;2.30;;;;;;;;;;5012397;28;20503;-67
2023/04/28 10:33:40;;;;;;;4.82;2.00;;;;;;;;;;5011925;28;20049;-66
2023/04/28 10:36:08;;;;;;;5.55;2.15;;;;;;;;;;5012209;28;20046;-68
2023/04/28 10:39:01;;;;;;;4.28;1.90;;;;;;;;;;5011727;28;20046;-70
2023/04/28 10:41:35;;;;;;;5.40;2.15;;;;;;;;;;5011638;28;20046;-68
2023/04/28 10:44:40;;;;;;;7.82;2.53;;;;;;;;;;5012135;28;20091;-67
2023/04/28 10:47:08;;;;;;;3.88;1.85;;;;;;;;;;5011594;28;20053;-68
2023/04/28 10:50:08;;;;;;;6.07;2.40;;;;;;;;;;5012108;28;20085;-69
2023/04/28 10:52:51;;;;;;;4.63;2.08;;;;;;;;;;5011775;28;20399;-68
2023/04/28 10:55:35;;;;;;;5.30;2.10;;;;;;;;;;5011895;28;20045;-68
2023/04/28 10:58:36;;;;;;;4.60;1.70;;;;;;;;;;5011892;28;20108;-67
2023/04/28 11:01:25;;;;;;;6.35;2.53;;;;;;;;;;5011468;28;20061;-69
2023/04/28 11:03:58;;;;;;;4.18;1.80;;;;;;;;;;5011920;28;20129;-69
2023/04/28 11:06:28;;;;;;;7.22;1.98;;;;;;;;;;5011389;28;20081;-68
2023/04/28 11:08:56;;;;;;;4.97;1.52;;;;;;;;;;5011296;28;20069;-67
2023/04/28 11:11:25;;;;;;;4.05;1.83;;;;;;;;;;5011314;28;20499;-68
2023/04/28 11:13:54;;;;;;;2.72;1.30;;;;;;;;;;5010868;28;20103;-68
2023/04/28 11:16:25;;;;;;;4.75;1.40;;;;;;;;;;5011194;28;20053;-68
2023/04/28 11:19:12;;;;;;;4.20;1.45;;;;;;;;;;5010933;28;20104;-70
2023/04/28 11:21:39;;;;;;;3.90;1.85;;;;;;;;;;5010970;28;20038;-68
2023/04/28 11:24:10;;;;;;;3.33;1.15;;;;;;;;;;5011720;28;20045;-71
2023/04/28 11:26:37;;;;;;;3.63;1.50;;;;;;;;;;5011362;28;20157;-64
2023/04/28 11:29:06;;;;;;;3.55;1.45;;;;;;;;;;5010812;28;20080;-67
2023/04/28 11:31:32;;;;;;;3.47;1.40;;;;;;;;;;5011363;28;20111;-68
2023/04/28 11:34:03;;;;;;;4.32;1.42;;;;;;;;;;5011504;28;20477;-67
2023/04/28 11:36:34;;;;;;;4.22;1.90;;;;;;;;;;5040016;22;20140;-67
2023/04/28 11:39:03;;;;;;;3.65;1.40;;;;;;;;;;5070054;28;20045;-68
2023/04/28 11:41:31;;;;;;;5.47;3.20;;;;;;;;;;5050722;28;20061;-66
2023/04/28 11:43:57;;;;;;;7.15;3.38;;;;;;;;;;5050486;28;20090;-66
2023/04/28 11:46:26;;;;;;;7.57;2.40;;;;;;;;;;5050265;28;20095;-66
2023/04/28 11:49:04;;;;;;;4.25;2.38;;;;;;;;;;5050387;28;20114;-66
2023/04/28 11:51:32;;;;;;;3.63;1.70;;;;;;;;;;5050573;28;20119;-67
2023/04/28 11:53:59;;;;;;;9.18;3.55;;;;;;;;;;5050511;28;20103;-68
2023/04/28 11:56:26;;;;;;;6.43;3.15;;;;;;;;;;5050219;28;20051;-67
2023/04/28 11:59:05;;;;;;;4.47;1.92;;;;;;;;;;5050056;28;20547;-67
2023/04/28 12:01:36;;;;;;;5.00;1.52;;;;;;;;;;5050174;28;20045;-67
2023/04/28 12:04:03;;;;;;;3.53;1.40;;;;;;;;;;5050482;28;20067;-67
2023/04/28 12:06:29;;;;;;;2.97;1.00;;;;;;;;;;5050293;28;20052;-67
2023/04/28 12:09:01;;;;;;;3.42;1.20;;;;;;;;;;5049882;28;20114;-67
2023/04/28 12:11:28;;;;;;;3.30;1.70;;;;;;;;;;5040843;28;20068;-67
2023/04/28 12:14:05;;;;;;;4.03;1.48;;;;;;;;;;5036078;28;20052;-68
2023/04/28 12:16:45;;;;;;;3.33;1.33;;;;;;;;;;5043444;28;20076;-67
2023/04/28 12:19:14;;;;;;;4.43;1.20;;;;;;;;;;5046596;28;20129;-68
2023/04/28 12:21:41;;;;;;;3.22;1.27;;;;;;;;;;5049944;28;20072;-68
2023/04/28 12:24:16;;;;;;;3.42;1.30;;;;;;;;;;5031260;28;20056;-67
2023/04/28 12:26:43;;;;;;;4.18;1.98;;;;;;;;;;5030489;28;20054;-67
2023/04/28 12:29:10;;;;;;;4.20;1.40;;;;;;;;;;5029921;28;20057;-67
2023/04/28 12:31:51;;;;;;;3.00;1.52;;;;;;;;;;5029890;28;20045;-67
2023/04/28 12:34:18;;;;;;;4.53;1.50;;;;;;;;;;5030263;28;20568;-67
2023/04/28 12:36:46;;;;;;;3.10;1.58;;;;;;;;;;5029552;28;20053;-67
2023/04/28 12:39:18;;;;;;;4.03;1.70;;;;;;;;;;5029872;28;20045;-67
2023/04/28 12:41:45;;;;;;;5.57;2.10;;;;;;;;;;5030089;28;20053;-67
2023/04/28 12:44:12;;;;;;;3.00;1.77;;;;;;;;;;5030243;28;20048;-68
2023/04/28 12:46:39;;;;;;;3.55;1.73;;;;;;;;;;5029849;28;20069;-67
2023/04/28 12:49:07;;;;;;;4.85;1.90;;;;;;;;;;5029977;28;20132;-67
2023/04/28 12:51:34;;;;;;;5.00;1.88;;;;;;;;;;5029829;28;20513;-67
2023/04/28 12:54:01;;;;;;;4.72;1.60;;;;;;;;;;5029971;28;20100;-68
2023/04/28 12:56:29;;;;;;;3.00;1.30;;;;;;;;;;5043950;28;20052;-66
2023/04/28 12:58:56;;;;;;;2.67;1.42;;;;;;;;;;5049554;28;20049;-66
2023/04/28 13:01:23;;;;;;;3.15;1.30;;;;;;;;;;5048161;28;20052;-66
2023/04/28 13:03:52;;;;;;;2.83;1.60;;;;;;;;;;5049591;28;20142;-67
2023/04/28 13:06:20;;;;;;;4.07;1.45;;;;;;;;;;5049780;28;20500;-67
2023/04/28 13:08:47;;;;;;;3.80;1.55;;;;;;;;;;5048483;28;20559;-67
2023/04/28 13:11:14;;;;;;;9.95;2.97;;;;;;;;;;5049766;28;20045;-67
2023/04/28 13:13:43;;;;;;;3.03;1.40;;;;;;;;;;5049758;28;20164;-68
2023/04/28 13:16:10;;;;;;;3.40;1.50;;;;;;;;;;5049646;28;20486;-68
2023/04/28 13:18:37;;;;;;;3.70;1.30;;;;;;;;;;5049158;28;20055;-67
2023/04/28 13:21:05;;;;;;;2.95;1.40;;;;;;;;;;5049533;28;20506;-67
2023/04/28 13:23:33;;;;;;;3.35;1.30;;;;;;;;;;5051404;28;20099;-67
2023/04/28 13:26:00;;;;;;;4.30;1.88;;;;;;;;;;5053150;28;20052;-68
2023/04/28 13:28:28;;;;;;;4.18;2.15;;;;;;;;;;5052661;28;20110;-66
2023/04/28 13:30:55;;;;;;;4.25;2.17;;;;;;;;;;5052827;28;20059;-67
2023/04/28 13:33:22;;;;;;;3.70;1.73;;;;;;;;;;5053129;28;20409;-67
2023/04/28 13:35:50;;;;;;;3.30;1.40;;;;;;;;;;5052985;28;20509;-67
2023/04/28 13:38:18;;;;;;;2.50;1.20;;;;;;;;;;5052750;28;20053;-67
2023/04/28 13:40:46;;;;;;;2.08;1.05;;;;;;;;;;5052763;28;20127;-67
2023/04/28 13:43:13;;;;;;;2.90;0.98;;;;;;;;;;5052888;28;20063;-67
2023/04/28 13:45:40;;;;;;;2.05;0.80;;;;;;;;;;5052836;28;20068;-67
2023/04/28 13:48:07;;;;;;;1.55;0.80;;;;;;;;;;5052393;28;20054;-67
2023/04/28 13:50:34;;;;;;;1.45;0.70;;;;;;;;;;5052764;28;20127;-68
2023/04/28 13:53:01;;;;;;;2.13;0.73;;;;;;;;;;5053044;28;20052;-66
2023/04/28 13:55:27;;;;;;;3.03;1.15;;;;;;;;;;5052711;28;20052;-67
2023/04/28 13:58:00;;;;;;;2.38;1.00;;;;;;;;;;5052219;28;20413;-66
2023/04/28 14:00:27;;;;;;;2.55;0.80;;;;;;;;;;5052426;28;20053;-67
2023/04/28 14:02:54;;;;;;;2.20;0.82;;;;;;;;;;5052638;28;20056;-67
2023/04/28 14:05:21;;;;;;;1.92;0.85;;;;;;;;;;5052948;28;20478;-66
2023/04/28 14:07:47;;;;;;;2.55;1.02;;;;;;;;;;5052348;28;20144;-66
2023/04/28 14:10:14;;;;;;;2.20;0.90;;;;;;;;;;5052018;28;20045;-68
2023/04/28 14:12:42;;;;;;;1.17;0.70;;;;;;;;;;5052205;28;20080;-66
2023/04/28 14:15:10;;;;;;;2.00;0.70;;;;;;;;;;5051956;28;20053;-67
2023/04/28 14:17:37;;;;;;;1.10;0.80;;;;;;;;;;5051337;28;20144;-66
2023/04/28 14:20:05;;;;;;;2.92;1.00;;;;;;;;;;5051619;28;20045;-67
2023/04/28 14:22:32;;;;;;;2.28;0.60;;;;;;;;;;5051791;28;20111;-67
2023/04/28 14:24:59;;;;;;;1.17;0.60;;;;;;;;;;5051804;28;20457;-66
2023/04/28 14:27:27;;;;;;;0.95;0.63;;;;;;;;;;5051615;28;20060;-68
2023/04/28 14:29:53;;;;;;;1.42;0.80;;;;;;;;;;5051932;28;20045;-67
2023/04/28 14:32:21;;;;;;;1.58;0.60;;;;;;;;;;5051874;28;20061;-67
2023/04/28 14:34:49;;;;;;;1.27;0.60;;;;;;;;;;5051320;28;20119;-67
2023/04/28 14:37:16;;;;;;;1.85;0.90;;;;;;;;;;5051720;28;20501;-68
2023/04/28 14:39:43;;;;;;;1.60;0.80;;;;;;;;;;5051358;28;20049;-67
2023/04/28 14:42:11;;;;;;;1.23;0.50;;;;;;;;;;5051673;28;20064;-67
2023/04/28 14:44:38;;;;;;;3.28;0.98;;;;;;;;;;5051831;28;20053;-68
2023/04/28 14:47:05;;;;;;;3.35;0.80;;;;;;;;;;5051582;28;20068;-65
2023/04/28 14:49:33;;;;;;;1.88;0.80;;;;;;;;;;5051728;28;20497;-65